createdAt,value
2023-04-20T00:01:52.704Z,100631.53
2023-04-20T00:06:54.392Z,100616.31
2023-04-20T00:11:56.362Z,100620.00
2023-04-20T00:16:58.032Z,100622.69
2023-04-20T00:22:00.117Z,100615.84
2023-04-20T00:27:01.911Z,100614.13
2023-04-20T00:32:04.003Z,100608.44
2023-04-20T00:37:06.283Z,100602.03
2023-04-20T00:42:08.882Z,100618.69
2023-04-20T00:47:10.710Z,100603.59
2023-04-20T00:52:12.429Z,100606.09
2023-04-20T00:57:14.571Z,100605.03
2023-04-20T01:02:16.409Z,100603.22
2023-04-20T01:07:18.027Z,100603.72
2023-04-20T01:12:19.655Z,100606.94
2023-04-20T01:17:21.329Z,100596.44
2023-04-20T01:22:23.043Z,100591.34
2023-04-20T01:27:24.665Z,100590.47
2023-04-20T01:32:26.884Z,100590.47
2023-04-20T01:37:28.741Z,100588.31
2023-04-20T01:42:30.456Z,100584.16
2023-04-20T01:47:32.729Z,100583.97
2023-04-20T01:52:34.825Z,100582.03
2023-04-20T01:57:36.425Z,100582.09
2023-04-20T02:02:38.170Z,100580.47
2023-04-20T02:07:39.907Z,100578.31
2023-04-20T02:12:41.698Z,100584.81
2023-04-20T02:17:43.871Z,100575.66
2023-04-20T02:22:45.679Z,100579.19
2023-04-20T02:27:47.310Z,100581.97
2023-04-20T02:32:49.272Z,100584.16
2023-04-20T02:37:51.758Z,100584.09
2023-04-20T02:42:53.430Z,100582.19
2023-04-20T02:47:55.800Z,100583.84
2023-04-20T02:52:58.153Z,100584.44
2023-04-20T02:57:59.891Z,100586.97
2023-04-20T03:03:17.693Z,100588.41
2023-04-20T03:08:19.702Z,100590.41
2023-04-20T03:13:23.140Z,100590.59
2023-04-20T03:18:29.073Z,100593.34
2023-04-20T03:23:31.180Z,100591.75
2023-04-20T03:28:34.860Z,100603.63
2023-04-20T03:33:37.726Z,100609.25
2023-04-20T03:38:40.199Z,100610.28
2023-04-20T03:43:41.960Z,100617.72
2023-04-20T03:48:44.427Z,100627.31
2023-04-20T03:53:46.065Z,100630.38
2023-04-20T03:58:48.864Z,100626.38
2023-04-20T04:03:54.577Z,100627.13
2023-04-20T04:08:56.405Z,100628.84
2023-04-20T04:13:59.361Z,100623.97
2023-04-20T04:19:02.716Z,100632.53
2023-04-20T04:24:05.321Z,100639.56
2023-04-20T04:29:16.122Z,100647.63
2023-04-20T04:34:18.877Z,100648.41
2023-04-20T04:39:27.016Z,100647.78
2023-04-20T04:44:43.600Z,100644.94
2023-04-20T04:49:49.956Z,100654.75
2023-04-20T04:54:51.720Z,100646.72
2023-04-20T04:59:53.382Z,100643.00
2023-04-20T05:04:55.198Z,100645.69
2023-04-20T05:09:56.863Z,100652.94
2023-04-20T05:14:58.616Z,100666.53
2023-04-20T05:20:00.311Z,100691.53
2023-04-20T05:25:01.952Z,100686.38
2023-04-20T05:30:18.930Z,100684.94
2023-04-20T05:35:22.421Z,100697.72
2023-04-20T05:40:24.162Z,100707.31
2023-04-20T05:45:25.803Z,100698.56
2023-04-20T05:50:27.494Z,100691.34
2023-04-20T05:55:29.152Z,100697.34
2023-04-20T06:00:31.086Z,100704.31
2023-04-20T06:05:32.787Z,100694.75
2023-04-20T06:10:34.747Z,100687.75
2023-04-20T06:15:36.717Z,100704.19
2023-04-20T06:20:39.435Z,100698.94
2023-04-20T06:25:41.356Z,100696.94
2023-04-20T06:30:42.990Z,100684.56
2023-04-20T06:35:45.040Z,100691.72
2023-04-20T06:40:46.730Z,100695.97
2023-04-20T06:45:48.361Z,100689.78
2023-04-20T06:50:50.430Z,100693.88
2023-04-20T06:55:54.696Z,100691.63
2023-04-20T07:00:56.371Z,100697.91
2023-04-20T07:05:57.975Z,100702.47
2023-04-20T07:10:59.857Z,100700.09
2023-04-20T07:16:01.530Z,100703.22
2023-04-20T07:21:03.253Z,100702.53
2023-04-20T07:26:04.927Z,100716.94
2023-04-20T07:31:06.594Z,100706.06
2023-04-20T07:36:08.594Z,100708.81
2023-04-20T07:41:11.100Z,100708.81
2023-04-20T07:46:20.438Z,100710.28
2023-04-20T07:51:22.256Z,100711.03
2023-04-20T07:56:23.873Z,100708.00
2023-04-20T08:01:25.898Z,100711.88
2023-04-20T08:06:28.108Z,100711.44
2023-04-20T08:11:29.910Z,100714.09
2023-04-20T08:16:31.591Z,100712.13
2023-04-20T08:21:33.281Z,100698.22
2023-04-20T08:26:35.366Z,100702.69
2023-04-20T08:31:37.131Z,100692.56
2023-04-20T08:36:39.155Z,100691.50
2023-04-20T08:41:40.960Z,100691.97
2023-04-20T08:46:47.188Z,100696.34
2023-04-20T08:51:49.373Z,100701.22
2023-04-20T08:56:51.234Z,100700.94
2023-04-20T09:01:52.899Z,100710.41
2023-04-20T09:06:55.804Z,100698.66
2023-04-20T09:12:02.870Z,100699.97
2023-04-20T09:17:05.258Z,100689.50
2023-04-20T09:22:07.113Z,100695.63
2023-04-20T09:27:16.195Z,100701.00
2023-04-20T09:32:24.979Z,100694.00
2023-04-20T09:37:27.108Z,100691.50
2023-04-20T09:42:29.086Z,100687.78
2023-04-20T09:47:30.999Z,100673.84
2023-04-20T09:52:33.363Z,100666.53
2023-04-20T09:57:35.561Z,100671.22
2023-04-20T10:02:37.756Z,100670.91
2023-04-20T10:07:39.535Z,100673.72
2023-04-20T10:12:51.545Z,100666.66
2023-04-20T10:17:53.494Z,100666.53
2023-04-20T10:23:07.971Z,100660.44
2023-04-20T10:28:10.914Z,100654.34
2023-04-20T10:33:13.503Z,100658.47
2023-04-20T10:38:16.412Z,100651.00
2023-04-20T10:43:21.986Z,100651.50
2023-04-20T10:48:23.594Z,100644.66
2023-04-20T10:53:26.160Z,100643.00
2023-04-20T10:58:28.105Z,100642.47
2023-04-20T11:03:31.013Z,100633.59
2023-04-20T11:08:50.648Z,100634.59
2023-04-20T11:13:52.326Z,100634.97
2023-04-20T11:18:55.112Z,100631.53
2023-04-20T11:23:57.132Z,100632.75
2023-04-20T11:28:58.943Z,100632.00
2023-04-20T11:34:01.057Z,100615.69
2023-04-20T11:39:13.868Z,100616.66
2023-04-20T11:44:15.825Z,100617.78
2023-04-20T11:49:17.656Z,100608.13
2023-04-20T11:54:19.657Z,100605.56
2023-04-20T11:59:21.871Z,100606.00
2023-04-20T12:04:23.915Z,100603.28
2023-04-20T12:09:26.834Z,100604.03
2023-04-20T12:14:28.426Z,100600.34
2023-04-20T12:19:30.615Z,100595.50
2023-04-20T12:24:32.238Z,100591.44
2023-04-20T12:29:33.902Z,100594.38
2023-04-20T12:34:35.550Z,100586.28
2023-04-20T12:39:37.225Z,100577.66
2023-04-20T12:44:38.927Z,100570.19
2023-04-20T12:49:40.568Z,100569.06
2023-04-20T12:54:44.013Z,100557.84
2023-04-20T12:59:48.596Z,100558.16
2023-04-20T13:04:50.744Z,100548.56
2023-04-20T13:09:52.405Z,100549.97
2023-04-20T13:14:54.055Z,100538.66
2023-04-20T13:19:55.690Z,100540.47
2023-04-20T13:24:57.369Z,100540.50
2023-04-20T13:30:01.990Z,100534.84
2023-04-20T13:35:03.843Z,100542.72
2023-04-20T13:40:06.998Z,100533.31
2023-04-20T13:45:10.305Z,100531.97
2023-04-20T13:50:12.000Z,100524.59
2023-04-20T13:55:13.666Z,100519.09
2023-04-20T14:00:15.610Z,100515.34
2023-04-20T14:05:17.375Z,100513.78
2023-04-20T14:10:19.144Z,100508.50
2023-04-20T14:15:20.806Z,100497.06
2023-04-20T14:20:22.575Z,100492.38
2023-04-20T14:25:24.207Z,100486.94
2023-04-20T14:30:25.891Z,100495.03
2023-04-20T14:35:28.401Z,100484.22
2023-04-20T14:40:31.472Z,100466.34
2023-04-20T14:45:38.898Z,100460.25
2023-04-20T14:50:40.603Z,100464.50
2023-04-20T14:55:42.280Z,100449.09
2023-04-20T15:00:44.868Z,100452.41
2023-04-20T15:05:47.018Z,100444.81
2023-04-20T15:10:49.185Z,100446.00
2023-04-20T15:15:53.348Z,100448.56
2023-04-20T15:20:56.559Z,100438.81
2023-04-20T15:25:58.624Z,100431.63
2023-04-20T15:31:00.212Z,100419.66
2023-04-20T15:36:01.909Z,100418.56
2023-04-20T15:41:03.562Z,100416.16
2023-04-20T15:46:05.585Z,100414.81
2023-04-20T15:51:07.294Z,100396.72
2023-04-20T15:56:09.007Z,100386.97
2023-04-20T16:01:10.696Z,100386.81
2023-04-20T16:06:12.669Z,100381.03
2023-04-20T16:11:14.265Z,100388.53
2023-04-20T16:16:16.174Z,100384.34
2023-04-20T16:21:18.295Z,100389.78
2023-04-20T16:26:21.142Z,100390.78
2023-04-20T16:31:22.844Z,100396.19
2023-04-20T16:36:24.551Z,100394.47
2023-04-20T16:41:27.119Z,100400.25
2023-04-20T16:46:28.807Z,100384.47
2023-04-20T16:51:30.545Z,100393.47
2023-04-20T16:56:32.174Z,100383.53
2023-04-20T17:01:33.921Z,100383.66
2023-04-20T17:06:35.628Z,100385.06
2023-04-20T17:11:39.587Z,100387.78
2023-04-20T17:16:41.375Z,100385.81
2023-04-20T17:21:45.168Z,100382.78
2023-04-20T17:26:47.131Z,100385.31
2023-04-20T17:31:48.792Z,100387.19
2023-04-20T17:36:50.453Z,100392.44
2023-04-20T17:41:52.091Z,100392.88
2023-04-20T17:46:53.759Z,100384.75
2023-04-20T17:51:55.459Z,100382.16
2023-04-20T17:56:58.136Z,100386.72
2023-04-20T18:01:59.973Z,100381.38
2023-04-20T18:07:01.820Z,100380.19
2023-04-20T18:12:03.787Z,100387.69
2023-04-20T18:17:05.428Z,100399.94
2023-04-20T18:22:07.743Z,100402.38
2023-04-20T18:27:10.064Z,100404.75
2023-04-20T18:32:12.101Z,100407.09
2023-04-20T18:37:14.156Z,100406.78
2023-04-20T18:42:16.940Z,100414.88
2023-04-20T18:47:22.233Z,100417.59
2023-04-20T18:52:23.970Z,100415.81
2023-04-20T18:57:28.444Z,100413.66
2023-04-20T19:02:30.388Z,100418.88
2023-04-20T19:07:32.258Z,100429.59
2023-04-20T19:12:33.912Z,100422.56
2023-04-20T19:17:36.385Z,100432.03
2023-04-20T19:22:38.162Z,100434.19
2023-04-20T19:27:40.257Z,100426.59
2023-04-20T19:32:41.935Z,100438.56
2023-04-20T19:37:43.659Z,100438.47
2023-04-20T19:42:45.326Z,100439.53
2023-04-20T19:47:46.974Z,100427.34
2023-04-20T19:52:48.716Z,100435.19
2023-04-20T19:57:50.494Z,100433.63
2023-04-20T20:02:52.267Z,100431.38
2023-04-20T20:07:54.284Z,100444.81
2023-04-20T20:12:55.908Z,100439.72
2023-04-20T20:17:59.398Z,100442.69
2023-04-20T20:23:01.249Z,100439.16
2023-04-20T20:28:03.425Z,100443.69
2023-04-20T20:33:05.183Z,100445.41
2023-04-20T20:38:07.957Z,100447.38
2023-04-20T20:43:10.658Z,100448.59
2023-04-20T20:48:12.571Z,100442.63
2023-04-20T20:53:15.076Z,100447.13
2023-04-20T20:58:16.903Z,100451.19
2023-04-20T21:03:18.873Z,100449.13
2023-04-20T21:08:25.767Z,100455.72
2023-04-20T21:13:30.196Z,100463.88
2023-04-20T21:18:57.883Z,100465.06
2023-04-20T21:24:11.692Z,100468.53
2023-04-20T21:29:21.234Z,100465.19
2023-04-20T21:34:28.076Z,100473.31
2023-04-20T21:39:30.706Z,100466.13
2023-04-20T21:44:32.879Z,100471.81
2023-04-20T21:49:34.505Z,100464.16
2023-04-20T21:54:36.130Z,100471.28
2023-04-20T21:59:38.814Z,100477.97
2023-04-20T22:04:41.325Z,100478.09
2023-04-20T22:09:43.313Z,100469.25
2023-04-20T22:14:45.048Z,100469.75
2023-04-20T22:19:46.819Z,100463.44
2023-04-20T22:24:48.780Z,100469.56
2023-04-20T22:29:50.632Z,100460.56
2023-04-20T22:34:52.299Z,100469.81
2023-04-20T22:39:53.938Z,100464.22
2023-04-20T22:44:55.691Z,100473.50
2023-04-20T22:49:57.743Z,100477.41
2023-04-20T22:55:00.326Z,100474.03
2023-04-20T23:00:07.955Z,100476.72
2023-04-20T23:05:10.010Z,100475.59
2023-04-20T23:10:11.875Z,100478.88
2023-04-20T23:15:13.741Z,100483.16
2023-04-20T23:20:15.437Z,100475.63
2023-04-20T23:25:17.119Z,100468.53
2023-04-20T23:30:19.147Z,100472.44
2023-04-20T23:35:20.933Z,100474.25
2023-04-20T23:40:22.654Z,100476.56
2023-04-20T23:45:24.403Z,100472.41
2023-04-20T23:50:26.129Z,100467.19
2023-04-20T23:55:27.833Z,100460.06
